sensor_id;sensor_type;location;lat;lon;timestamp;temperature;humidity
18717;DHT22;9487;50.892;6.906;2023-08-31T00:00:42;14.70;1.00
18717;DHT22;9487;50.892;6.906;2023-08-31T00:03:10;14.70;1.00
18717;DHT22;9487;50.892;6.906;2023-08-31T00:05:37;14.70;1.00
18717;DHT22;9487;50.892;6.906;2023-08-31T00:08:06;14.70;1.00
18717;DHT22;9487;50.892;6.906;2023-08-31T00:10:39;14.60;1.00
18717;DHT22;9487;50.892;6.906;2023-08-31T00:13:06;14.60;1.00
18717;DHT22;9487;50.892;6.906;2023-08-31T00:15:33;14.50;1.00
18717;DHT22;9487;50.892;6.906;2023-08-31T00:18:02;14.50;1.00
18717;DHT22;9487;50.892;6.906;2023-08-31T00:20:31;14.50;1.00
18717;DHT22;9487;50.892;6.906;2023-08-31T00:22:59;14.50;1.00
18717;DHT22;9487;50.892;6.906;2023-08-31T00:25:25;14.40;1.00
18717;DHT22;9487;50.892;6.906;2023-08-31T00:27:53;14.40;1.00
18717;DHT22;9487;50.892;6.906;2023-08-31T00:30:20;14.40;1.00
18717;DHT22;9487;50.892;6.906;2023-08-31T00:32:51;14.40;1.00
18717;DHT22;9487;50.892;6.906;2023-08-31T00:35:19;14.40;1.00
18717;DHT22;9487;50.892;6.906;2023-08-31T00:37:49;14.40;1.00
18717;DHT22;9487;50.892;6.906;2023-08-31T00:40:16;14.40;13.70
18717;DHT22;9487;50.892;6.906;2023-08-31T00:42:43;14.40;1.00
18717;DHT22;9487;50.892;6.906;2023-08-31T00:45:12;14.40;1.00
18717;DHT22;9487;50.892;6.906;2023-08-31T00:47:39;14.30;1.00
18717;DHT22;9487;50.892;6.906;2023-08-31T00:50:07;14.30;40.50
18717;DHT22;9487;50.892;6.906;2023-08-31T00:52:34;14.30;5.50
18717;DHT22;9487;50.892;6.906;2023-08-31T00:55:05;14.20;85.00
18717;DHT22;9487;50.892;6.906;2023-08-31T00:57:33;14.00;99.90
18717;DHT22;9487;50.892;6.906;2023-08-31T01:00:00;14.20;99.90
18717;DHT22;9487;50.892;6.906;2023-08-31T01:02:37;14.30;95.50
18717;DHT22;9487;50.892;6.906;2023-08-31T01:05:11;14.40;17.60
18717;DHT22;9487;50.892;6.906;2023-08-31T01:07:46;14.40;1.00
18717;DHT22;9487;50.892;6.906;2023-08-31T01:10:25;14.30;8.70
18717;DHT22;9487;50.892;6.906;2023-08-31T01:13:00;14.40;1.00
18717;DHT22;9487;50.892;6.906;2023-08-31T01:15:30;14.40;1.00
18717;DHT22;9487;50.892;6.906;2023-08-31T01:17:59;14.30;1.00
18717;DHT22;9487;50.892;6.906;2023-08-31T01:20:32;14.20;1.00
18717;DHT22;9487;50.892;6.906;2023-08-31T01:23:04;14.10;94.40
18717;DHT22;9487;50.892;6.906;2023-08-31T01:25:35;14.10;99.90
18717;DHT22;9487;50.892;6.906;2023-08-31T01:28:04;14.10;99.90
18717;DHT22;9487;50.892;6.906;2023-08-31T01:30:32;14.10;99.90
18717;DHT22;9487;50.892;6.906;2023-08-31T01:32:59;14.00;64.00
18717;DHT22;9487;50.892;6.906;2023-08-31T01:35:26;14.00;99.90
18717;DHT22;9487;50.892;6.906;2023-08-31T01:37:59;14.00;99.90
18717;DHT22;9487;50.892;6.906;2023-08-31T01:40:31;13.90;99.90
18717;DHT22;9487;50.892;6.906;2023-08-31T01:43:02;13.80;99.90
18717;DHT22;9487;50.892;6.906;2023-08-31T01:45:30;13.90;99.90
18717;DHT22;9487;50.892;6.906;2023-08-31T01:47:58;13.90;99.90
18717;DHT22;9487;50.892;6.906;2023-08-31T01:50:25;14.00;99.90
18717;DHT22;9487;50.892;6.906;2023-08-31T01:52:52;14.00;99.90
18717;DHT22;9487;50.892;6.906;2023-08-31T01:55:20;14.00;99.90
18717;DHT22;9487;50.892;6.906;2023-08-31T01:57:48;14.00;99.90
18717;DHT22;9487;50.892;6.906;2023-08-31T02:00:17;14.00;99.90
18717;DHT22;9487;50.892;6.906;2023-08-31T02:02:45;13.90;99.90
18717;DHT22;9487;50.892;6.906;2023-08-31T02:05:12;13.90;99.90
18717;DHT22;9487;50.892;6.906;2023-08-31T02:07:38;13.90;99.90
18717;DHT22;9487;50.892;6.906;2023-08-31T02:10:07;13.80;99.90
18717;DHT22;9487;50.892;6.906;2023-08-31T02:12:34;13.80;99.90
18717;DHT22;9487;50.892;6.906;2023-08-31T02:15:05;13.80;99.90
18717;DHT22;9487;50.892;6.906;2023-08-31T02:17:33;13.80;99.90
18717;DHT22;9487;50.892;6.906;2023-08-31T02:20:01;13.70;99.90
18717;DHT22;9487;50.892;6.906;2023-08-31T02:22:33;13.70;99.90
18717;DHT22;9487;50.892;6.906;2023-08-31T02:25:00;13.70;99.90
18717;DHT22;9487;50.892;6.906;2023-08-31T02:27:27;13.80;99.90
18717;DHT22;9487;50.892;6.906;2023-08-31T02:29:54;13.80;99.90
18717;DHT22;9487;50.892;6.906;2023-08-31T02:32:22;13.80;63.80
18717;DHT22;9487;50.892;6.906;2023-08-31T02:34:50;13.80;99.90
18717;DHT22;9487;50.892;6.906;2023-08-31T02:37:17;13.80;99.90
18717;DHT22;9487;50.892;6.906;2023-08-31T02:39:44;13.80;77.60
18717;DHT22;9487;50.892;6.906;2023-08-31T02:42:11;13.90;81.90
18717;DHT22;9487;50.892;6.906;2023-08-31T02:44:38;14.00;1.00
18717;DHT22;9487;50.892;6.906;2023-08-31T02:47:05;14.10;1.00
18717;DHT22;9487;50.892;6.906;2023-08-31T02:49:32;14.10;1.00
18717;DHT22;9487;50.892;6.906;2023-08-31T02:52:01;14.00;1.00
18717;DHT22;9487;50.892;6.906;2023-08-31T02:54:28;14.00;1.00
18717;DHT22;9487;50.892;6.906;2023-08-31T02:56:55;13.90;1.00
18717;DHT22;9487;50.892;6.906;2023-08-31T02:59:22;13.90;1.00
18717;DHT22;9487;50.892;6.906;2023-08-31T03:01:49;13.80;1.00
18717;DHT22;9487;50.892;6.906;2023-08-31T03:04:16;13.70;1.00
18717;DHT22;9487;50.892;6.906;2023-08-31T03:06:44;13.70;1.00
18717;DHT22;9487;50.892;6.906;2023-08-31T03:09:12;13.70;10.00
18717;DHT22;9487;50.892;6.906;2023-08-31T03:11:39;13.70;1.00
18717;DHT22;9487;50.892;6.906;2023-08-31T03:14:08;13.60;1.00
18717;DHT22;9487;50.892;6.906;2023-08-31T03:16:35;13.60;29.10
18717;DHT22;9487;50.892;6.906;2023-08-31T03:19:02;13.50;31.50
18717;DHT22;9487;50.892;6.906;2023-08-31T03:21:29;13.50;91.50
18717;DHT22;9487;50.892;6.906;2023-08-31T03:23:58;13.50;53.10
18717;DHT22;9487;50.892;6.906;2023-08-31T03:26:26;13.40;66.80
18717;DHT22;9487;50.892;6.906;2023-08-31T03:28:53;13.40;99.90
18717;DHT22;9487;50.892;6.906;2023-08-31T03:31:20;13.40;99.90
18717;DHT22;9487;50.892;6.906;2023-08-31T03:33:47;13.40;99.90
18717;DHT22;9487;50.892;6.906;2023-08-31T03:36:14;13.40;99.90
18717;DHT22;9487;50.892;6.906;2023-08-31T03:38:41;13.40;99.90
18717;DHT22;9487;50.892;6.906;2023-08-31T03:41:09;13.40;99.90
18717;DHT22;9487;50.892;6.906;2023-08-31T03:43:38;13.50;99.90
18717;DHT22;9487;50.892;6.906;2023-08-31T03:46:05;13.60;99.90
18717;DHT22;9487;50.892;6.906;2023-08-31T03:48:32;13.50;99.90
18717;DHT22;9487;50.892;6.906;2023-08-31T03:50:59;13.60;99.90
18717;DHT22;9487;50.892;6.906;2023-08-31T03:53:25;13.60;99.90
18717;DHT22;9487;50.892;6.906;2023-08-31T03:55:55;13.70;99.90
18717;DHT22;9487;50.892;6.906;2023-08-31T03:58:21;13.70;99.90
18717;DHT22;9487;50.892;6.906;2023-08-31T04:00:52;13.70;99.90
18717;DHT22;9487;50.892;6.906;2023-08-31T04:03:20;13.70;99.90
18717;DHT22;9487;50.892;6.906;2023-08-31T04:05:47;13.80;99.90
18717;DHT22;9487;50.892;6.906;2023-08-31T04:08:16;13.70;99.90
18717;DHT22;9487;50.892;6.906;2023-08-31T04:10:42;13.70;99.90
18717;DHT22;9487;50.892;6.906;2023-08-31T04:13:09;13.80;99.90
18717;DHT22;9487;50.892;6.906;2023-08-31T04:15:36;13.80;99.90
18717;DHT22;9487;50.892;6.906;2023-08-31T04:18:08;13.70;99.90
18717;DHT22;9487;50.892;6.906;2023-08-31T04:20:35;13.70;99.90
18717;DHT22;9487;50.892;6.906;2023-08-31T04:23:02;13.70;99.90
18717;DHT22;9487;50.892;6.906;2023-08-31T04:25:29;13.60;99.90
18717;DHT22;9487;50.892;6.906;2023-08-31T04:27:57;13.60;99.90
18717;DHT22;9487;50.892;6.906;2023-08-31T04:30:24;13.60;99.90
18717;DHT22;9487;50.892;6.906;2023-08-31T04:32:52;13.50;99.90
18717;DHT22;9487;50.892;6.906;2023-08-31T04:35:22;13.50;99.90
18717;DHT22;9487;50.892;6.906;2023-08-31T04:37:49;13.40;99.90
18717;DHT22;9487;50.892;6.906;2023-08-31T04:40:16;13.50;99.90
18717;DHT22;9487;50.892;6.906;2023-08-31T04:42:44;13.40;99.90
18717;DHT22;9487;50.892;6.906;2023-08-31T04:45:11;13.40;99.90
18717;DHT22;9487;50.892;6.906;2023-08-31T04:47:38;13.40;99.90
18717;DHT22;9487;50.892;6.906;2023-08-31T04:50:07;13.40;99.90
18717;DHT22;9487;50.892;6.906;2023-08-31T04:52:35;13.40;99.90
18717;DHT22;9487;50.892;6.906;2023-08-31T04:55:05;13.30;99.90
18717;DHT22;9487;50.892;6.906;2023-08-31T04:57:33;13.20;99.90
18717;DHT22;9487;50.892;6.906;2023-08-31T05:00:00;13.20;99.90
18717;DHT22;9487;50.892;6.906;2023-08-31T05:02:28;13.20;99.90
18717;DHT22;9487;50.892;6.906;2023-08-31T05:04:55;13.20;99.90
18717;DHT22;9487;50.892;6.906;2023-08-31T05:07:22;13.20;99.90
18717;DHT22;9487;50.892;6.906;2023-08-31T05:09:50;13.30;99.90
18717;DHT22;9487;50.892;6.906;2023-08-31T05:12:17;13.30;99.90
18717;DHT22;9487;50.892;6.906;2023-08-31T05:14:44;13.20;99.90
18717;DHT22;9487;50.892;6.906;2023-08-31T05:17:11;13.20;99.90
18717;DHT22;9487;50.892;6.906;2023-08-31T05:19:37;13.30;99.90
18717;DHT22;9487;50.892;6.906;2023-08-31T05:22:05;13.30;99.90
18717;DHT22;9487;50.892;6.906;2023-08-31T05:24:32;13.40;99.90
18717;DHT22;9487;50.892;6.906;2023-08-31T05:27:00;13.40;99.90
18717;DHT22;9487;50.892;6.906;2023-08-31T05:29:29;13.40;99.90
18717;DHT22;9487;50.892;6.906;2023-08-31T05:31:56;13.50;99.90
18717;DHT22;9487;50.892;6.906;2023-08-31T05:34:24;13.50;99.90
18717;DHT22;9487;50.892;6.906;2023-08-31T05:36:51;13.60;99.90
18717;DHT22;9487;50.892;6.906;2023-08-31T05:39:18;13.60;99.90
18717;DHT22;9487;50.892;6.906;2023-08-31T05:41:45;13.70;99.90
18717;DHT22;9487;50.892;6.906;2023-08-31T05:44:13;13.70;99.90
18717;DHT22;9487;50.892;6.906;2023-08-31T05:46:40;13.70;99.90
18717;DHT22;9487;50.892;6.906;2023-08-31T05:49:07;13.80;99.90
18717;DHT22;9487;50.892;6.906;2023-08-31T05:51:34;13.90;99.90
18717;DHT22;9487;50.892;6.906;2023-08-31T05:54:01;14.10;1.00
18717;DHT22;9487;50.892;6.906;2023-08-31T05:56:28;14.00;1.00
18717;DHT22;9487;50.892;6.906;2023-08-31T05:58:55;14.10;1.00
18717;DHT22;9487;50.892;6.906;2023-08-31T06:01:23;14.10;1.00
18717;DHT22;9487;50.892;6.906;2023-08-31T06:03:50;14.20;1.00
18717;DHT22;9487;50.892;6.906;2023-08-31T06:06:17;14.20;1.00
18717;DHT22;9487;50.892;6.906;2023-08-31T06:08:44;14.40;1.00
18717;DHT22;9487;50.892;6.906;2023-08-31T06:11:11;14.50;1.00
18717;DHT22;9487;50.892;6.906;2023-08-31T06:13:38;14.60;1.00
18717;DHT22;9487;50.892;6.906;2023-08-31T06:16:05;14.70;1.00
18717;DHT22;9487;50.892;6.906;2023-08-31T06:18:33;14.90;1.00
18717;DHT22;9487;50.892;6.906;2023-08-31T06:21:01;14.90;1.00
18717;DHT22;9487;50.892;6.906;2023-08-31T06:23:27;15.10;99.90
18717;DHT22;9487;50.892;6.906;2023-08-31T06:25:54;15.00;1.00
18717;DHT22;9487;50.892;6.906;2023-08-31T06:28:21;15.10;99.90
18717;DHT22;9487;50.892;6.906;2023-08-31T06:30:48;15.20;1.00
18717;DHT22;9487;50.892;6.906;2023-08-31T06:33:15;15.00;1.00
18717;DHT22;9487;50.892;6.906;2023-08-31T06:35:45;15.20;1.00
18717;DHT22;9487;50.892;6.906;2023-08-31T06:38:14;15.40;99.90
18717;DHT22;9487;50.892;6.906;2023-08-31T06:40:41;15.40;99.90
18717;DHT22;9487;50.892;6.906;2023-08-31T06:43:09;15.40;99.90
18717;DHT22;9487;50.892;6.906;2023-08-31T06:45:35;15.60;99.90
18717;DHT22;9487;50.892;6.906;2023-08-31T06:48:03;15.40;99.90
18717;DHT22;9487;50.892;6.906;2023-08-31T06:50:30;15.50;99.90
18717;DHT22;9487;50.892;6.906;2023-08-31T06:52:58;15.50;99.90
18717;DHT22;9487;50.892;6.906;2023-08-31T06:55:25;15.60;99.90
18717;DHT22;9487;50.892;6.906;2023-08-31T06:57:52;15.60;95.20
18717;DHT22;9487;50.892;6.906;2023-08-31T07:00:19;15.50;99.90
18717;DHT22;9487;50.892;6.906;2023-08-31T07:02:46;15.60;99.90
18717;DHT22;9487;50.892;6.906;2023-08-31T07:05:13;15.70;99.90
18717;DHT22;9487;50.892;6.906;2023-08-31T07:07:40;15.70;99.90
18717;DHT22;9487;50.892;6.906;2023-08-31T07:10:08;15.80;99.90
18717;DHT22;9487;50.892;6.906;2023-08-31T07:12:36;15.90;23.60
18717;DHT22;9487;50.892;6.906;2023-08-31T07:15:04;15.90;43.50
18717;DHT22;9487;50.892;6.906;2023-08-31T07:17:31;15.80;27.10
18717;DHT22;9487;50.892;6.906;2023-08-31T07:19:57;15.90;99.90
18717;DHT22;9487;50.892;6.906;2023-08-31T07:22:24;16.00;99.90
18717;DHT22;9487;50.892;6.906;2023-08-31T07:24:51;16.10;1.00
18717;DHT22;9487;50.892;6.906;2023-08-31T07:27:19;16.30;1.00
18717;DHT22;9487;50.892;6.906;2023-08-31T07:29:46;16.40;1.00
18717;DHT22;9487;50.892;6.906;2023-08-31T07:32:13;16.50;1.00
18717;DHT22;9487;50.892;6.906;2023-08-31T07:34:40;16.60;1.00
18717;DHT22;9487;50.892;6.906;2023-08-31T07:37:06;16.50;1.00
18717;DHT22;9487;50.892;6.906;2023-08-31T07:39:33;16.50;1.00
18717;DHT22;9487;50.892;6.906;2023-08-31T07:42:00;16.60;1.00
18717;DHT22;9487;50.892;6.906;2023-08-31T07:44:29;16.50;1.00
18717;DHT22;9487;50.892;6.906;2023-08-31T07:46:55;16.50;1.00
18717;DHT22;9487;50.892;6.906;2023-08-31T07:49:22;16.60;1.00
18717;DHT22;9487;50.892;6.906;2023-08-31T07:51:49;16.70;1.00
18717;DHT22;9487;50.892;6.906;2023-08-31T07:54:20;16.90;1.00
18717;DHT22;9487;50.892;6.906;2023-08-31T07:56:47;17.00;99.90
18717;DHT22;9487;50.892;6.906;2023-08-31T07:59:14;17.00;99.90
18717;DHT22;9487;50.892;6.906;2023-08-31T08:01:42;16.80;99.90
18717;DHT22;9487;50.892;6.906;2023-08-31T08:04:10;16.80;99.90
18717;DHT22;9487;50.892;6.906;2023-08-31T08:06:37;16.60;1.00
18717;DHT22;9487;50.892;6.906;2023-08-31T08:09:04;16.60;1.00
18717;DHT22;9487;50.892;6.906;2023-08-31T08:11:31;16.60;1.00
18717;DHT22;9487;50.892;6.906;2023-08-31T08:13:58;16.60;1.00
18717;DHT22;9487;50.892;6.906;2023-08-31T08:16:25;16.60;1.00
18717;DHT22;9487;50.892;6.906;2023-08-31T08:18:53;16.60;1.00
18717;DHT22;9487;50.892;6.906;2023-08-31T08:21:20;16.60;1.00
18717;DHT22;9487;50.892;6.906;2023-08-31T08:23:47;16.70;99.90
18717;DHT22;9487;50.892;6.906;2023-08-31T08:26:16;16.90;99.90
18717;DHT22;9487;50.892;6.906;2023-08-31T08:28:43;17.10;99.90
18717;DHT22;9487;50.892;6.906;2023-08-31T08:31:10;17.30;1.00
18717;DHT22;9487;50.892;6.906;2023-08-31T08:33:36;17.40;99.90
18717;DHT22;9487;50.892;6.906;2023-08-31T08:36:05;17.50;99.90
18717;DHT22;9487;50.892;6.906;2023-08-31T08:38:32;17.70;99.90
18717;DHT22;9487;50.892;6.906;2023-08-31T08:41:04;17.60;99.90
18717;DHT22;9487;50.892;6.906;2023-08-31T08:43:31;17.70;91.80
18717;DHT22;9487;50.892;6.906;2023-08-31T08:46:04;17.80;1.00
18717;DHT22;9487;50.892;6.906;2023-08-31T08:48:33;17.90;8.00
18717;DHT22;9487;50.892;6.906;2023-08-31T08:51:02;18.00;1.00
18717;DHT22;9487;50.892;6.906;2023-08-31T08:53:30;18.00;99.90
18717;DHT22;9487;50.892;6.906;2023-08-31T08:55:58;18.10;99.90
18717;DHT22;9487;50.892;6.906;2023-08-31T08:58:25;18.20;14.60
18717;DHT22;9487;50.892;6.906;2023-08-31T09:00:54;18.20;1.00
18717;DHT22;9487;50.892;6.906;2023-08-31T09:03:22;18.00;1.00
18717;DHT22;9487;50.892;6.906;2023-08-31T09:05:50;17.90;1.00
18717;DHT22;9487;50.892;6.906;2023-08-31T09:08:17;18.10;99.90
18717;DHT22;9487;50.892;6.906;2023-08-31T09:10:55;18.20;1.00
18717;DHT22;9487;50.892;6.906;2023-08-31T09:13:26;18.00;1.00
18717;DHT22;9487;50.892;6.906;2023-08-31T09:15:54;17.90;1.00
18717;DHT22;9487;50.892;6.906;2023-08-31T09:18:23;17.80;1.00
18717;DHT22;9487;50.892;6.906;2023-08-31T09:20:52;17.70;99.90
18717;DHT22;9487;50.892;6.906;2023-08-31T09:23:19;17.80;99.90
18717;DHT22;9487;50.892;6.906;2023-08-31T09:25:47;18.10;99.90
18717;DHT22;9487;50.892;6.906;2023-08-31T09:28:18;18.30;99.90
18717;DHT22;9487;50.892;6.906;2023-08-31T09:30:46;18.50;1.00
18717;DHT22;9487;50.892;6.906;2023-08-31T09:33:15;18.50;1.00
18717;DHT22;9487;50.892;6.906;2023-08-31T09:35:48;18.40;1.00
18717;DHT22;9487;50.892;6.906;2023-08-31T09:38:16;18.40;1.00
18717;DHT22;9487;50.892;6.906;2023-08-31T09:40:43;18.50;1.00
18717;DHT22;9487;50.892;6.906;2023-08-31T09:43:10;18.60;1.00
18717;DHT22;9487;50.892;6.906;2023-08-31T09:45:38;18.70;1.00
18717;DHT22;9487;50.892;6.906;2023-08-31T09:48:05;18.70;1.00
18717;DHT22;9487;50.892;6.906;2023-08-31T09:50:33;18.70;32.10
18717;DHT22;9487;50.892;6.906;2023-08-31T09:53:02;18.80;1.00
18717;DHT22;9487;50.892;6.906;2023-08-31T09:55:30;18.90;99.90
18717;DHT22;9487;50.892;6.906;2023-08-31T09:57:59;19.00;99.90
18717;DHT22;9487;50.892;6.906;2023-08-31T10:00:27;19.10;99.90
18717;DHT22;9487;50.892;6.906;2023-08-31T10:02:59;19.20;1.00
18717;DHT22;9487;50.892;6.906;2023-08-31T10:05:26;19.30;99.90
18717;DHT22;9487;50.892;6.906;2023-08-31T10:07:54;19.40;1.00
18717;DHT22;9487;50.892;6.906;2023-08-31T10:10:21;19.40;1.00
18717;DHT22;9487;50.892;6.906;2023-08-31T10:12:49;19.40;1.00
18717;DHT22;9487;50.892;6.906;2023-08-31T10:15:17;19.50;1.00
18717;DHT22;9487;50.892;6.906;2023-08-31T10:17:44;19.40;99.90
18717;DHT22;9487;50.892;6.906;2023-08-31T10:20:15;19.40;1.00
18717;DHT22;9487;50.892;6.906;2023-08-31T10:22:42;19.60;1.00
18717;DHT22;9487;50.892;6.906;2023-08-31T10:25:10;19.70;99.90
18717;DHT22;9487;50.892;6.906;2023-08-31T10:27:39;19.60;1.00
18717;DHT22;9487;50.892;6.906;2023-08-31T10:30:24;19.50;1.00
18717;DHT22;9487;50.892;6.906;2023-08-31T10:33:19;19.30;99.90
18717;DHT22;9487;50.892;6.906;2023-08-31T10:35:54;19.20;99.90
18717;DHT22;9487;50.892;6.906;2023-08-31T10:38:26;19.10;99.90
18717;DHT22;9487;50.892;6.906;2023-08-31T10:41:01;19.00;99.90
18717;DHT22;9487;50.892;6.906;2023-08-31T10:43:43;18.90;99.90
18717;DHT22;9487;50.892;6.906;2023-08-31T10:46:18;18.90;1.00
18717;DHT22;9487;50.892;6.906;2023-08-31T10:48:53;18.90;11.40
18717;DHT22;9487;50.892;6.906;2023-08-31T10:51:26;18.90;1.00
18717;DHT22;9487;50.892;6.906;2023-08-31T10:54:05;19.00;99.90
18717;DHT22;9487;50.892;6.906;2023-08-31T10:56:32;19.10;99.90
18717;DHT22;9487;50.892;6.906;2023-08-31T10:59:00;19.10;1.00
18717;DHT22;9487;50.892;6.906;2023-08-31T11:01:52;19.10;1.00
18717;DHT22;9487;50.892;6.906;2023-08-31T11:04:20;19.30;99.90
18717;DHT22;9487;50.892;6.906;2023-08-31T11:06:49;19.50;1.00
18717;DHT22;9487;50.892;6.906;2023-08-31T11:09:20;19.60;1.00
18717;DHT22;9487;50.892;6.906;2023-08-31T11:11:49;19.50;1.00
18717;DHT22;9487;50.892;6.906;2023-08-31T11:14:15;19.60;99.90
18717;DHT22;9487;50.892;6.906;2023-08-31T11:16:43;19.80;1.00
18717;DHT22;9487;50.892;6.906;2023-08-31T11:19:10;19.80;1.00
18717;DHT22;9487;50.892;6.906;2023-08-31T11:21:37;19.60;1.00
18717;DHT22;9487;50.892;6.906;2023-08-31T11:24:08;19.50;1.00
18717;DHT22;9487;50.892;6.906;2023-08-31T11:26:35;19.30;1.00
18717;DHT22;9487;50.892;6.906;2023-08-31T11:29:06;19.10;1.00
18717;DHT22;9487;50.892;6.906;2023-08-31T11:31:38;18.80;99.90
18717;DHT22;9487;50.892;6.906;2023-08-31T11:34:05;18.50;1.00
18717;DHT22;9487;50.892;6.906;2023-08-31T11:36:32;18.00;99.90
18717;DHT22;9487;50.892;6.906;2023-08-31T11:39:00;17.60;1.00
18717;DHT22;9487;50.892;6.906;2023-08-31T11:41:32;17.40;1.00
18717;DHT22;9487;50.892;6.906;2023-08-31T11:44:03;17.20;99.90
18717;DHT22;9487;50.892;6.906;2023-08-31T11:46:30;17.00;49.40
18717;DHT22;9487;50.892;6.906;2023-08-31T11:48:59;16.90;99.90
18717;DHT22;9487;50.892;6.906;2023-08-31T11:51:27;16.70;99.90
18717;DHT22;9487;50.892;6.906;2023-08-31T11:53:55;16.80;1.00
18717;DHT22;9487;50.892;6.906;2023-08-31T11:56:24;16.80;99.90
18717;DHT22;9487;50.892;6.906;2023-08-31T11:58:52;16.90;99.90
18717;DHT22;9487;50.892;6.906;2023-08-31T12:01:20;17.10;1.00
18717;DHT22;9487;50.892;6.906;2023-08-31T12:03:47;17.30;1.00
18717;DHT22;9487;50.892;6.906;2023-08-31T12:06:15;17.60;99.90
18717;DHT22;9487;50.892;6.906;2023-08-31T12:08:43;18.00;99.90
18717;DHT22;9487;50.892;6.906;2023-08-31T12:11:10;18.30;1.00
18717;DHT22;9487;50.892;6.906;2023-08-31T12:13:37;18.60;99.90
18717;DHT22;9487;50.892;6.906;2023-08-31T12:16:11;18.80;1.00
18717;DHT22;9487;50.892;6.906;2023-08-31T12:18:39;18.90;99.90
18717;DHT22;9487;50.892;6.906;2023-08-31T12:21:06;18.90;1.00
18717;DHT22;9487;50.892;6.906;2023-08-31T12:23:33;18.90;1.00
18717;DHT22;9487;50.892;6.906;2023-08-31T12:26:00;18.80;99.90
18717;DHT22;9487;50.892;6.906;2023-08-31T12:28:28;18.70;1.00
18717;DHT22;9487;50.892;6.906;2023-08-31T12:30:55;18.70;99.90
18717;DHT22;9487;50.892;6.906;2023-08-31T12:33:24;18.50;99.90
18717;DHT22;9487;50.892;6.906;2023-08-31T12:35:51;18.30;1.00
18717;DHT22;9487;50.892;6.906;2023-08-31T12:38:18;18.30;1.00
18717;DHT22;9487;50.892;6.906;2023-08-31T12:40:45;18.20;1.00
18717;DHT22;9487;50.892;6.906;2023-08-31T12:43:12;18.20;1.00
18717;DHT22;9487;50.892;6.906;2023-08-31T12:45:39;18.20;1.00
18717;DHT22;9487;50.892;6.906;2023-08-31T12:48:06;18.20;99.90
18717;DHT22;9487;50.892;6.906;2023-08-31T12:50:35;18.20;1.00
18717;DHT22;9487;50.892;6.906;2023-08-31T12:53:01;18.10;1.00
18717;DHT22;9487;50.892;6.906;2023-08-31T12:55:29;18.10;1.00
18717;DHT22;9487;50.892;6.906;2023-08-31T12:57:57;18.20;1.00
18717;DHT22;9487;50.892;6.906;2023-08-31T13:00:24;18.30;1.00
18717;DHT22;9487;50.892;6.906;2023-08-31T13:02:51;18.50;99.90
18717;DHT22;9487;50.892;6.906;2023-08-31T13:05:18;18.70;1.00
18717;DHT22;9487;50.892;6.906;2023-08-31T13:07:46;18.90;99.90
18717;DHT22;9487;50.892;6.906;2023-08-31T13:10:13;19.00;1.00
18717;DHT22;9487;50.892;6.906;2023-08-31T13:12:40;19.00;1.00
18717;DHT22;9487;50.892;6.906;2023-08-31T13:15:08;19.10;1.00
18717;DHT22;9487;50.892;6.906;2023-08-31T13:17:35;19.20;1.00
18717;DHT22;9487;50.892;6.906;2023-08-31T13:20:02;19.40;99.90
18717;DHT22;9487;50.892;6.906;2023-08-31T13:22:30;19.50;1.00
18717;DHT22;9487;50.892;6.906;2023-08-31T13:24:58;19.60;1.00
18717;DHT22;9487;50.892;6.906;2023-08-31T13:27:25;19.60;1.00
18717;DHT22;9487;50.892;6.906;2023-08-31T13:29:52;19.50;1.00
18717;DHT22;9487;50.892;6.906;2023-08-31T13:32:19;19.40;99.90
18717;DHT22;9487;50.892;6.906;2023-08-31T13:34:46;19.30;99.90
18717;DHT22;9487;50.892;6.906;2023-08-31T13:37:13;19.30;1.00
18717;DHT22;9487;50.892;6.906;2023-08-31T13:39:40;19.30;1.00
18717;DHT22;9487;50.892;6.906;2023-08-31T13:42:08;19.30;99.90
18717;DHT22;9487;50.892;6.906;2023-08-31T13:44:35;19.30;1.00
18717;DHT22;9487;50.892;6.906;2023-08-31T13:47:03;19.30;1.00
18717;DHT22;9487;50.892;6.906;2023-08-31T13:49:31;19.30;1.00
18717;DHT22;9487;50.892;6.906;2023-08-31T13:52:00;19.40;99.90
18717;DHT22;9487;50.892;6.906;2023-08-31T13:54:27;19.50;99.90
18717;DHT22;9487;50.892;6.906;2023-08-31T13:56:53;19.50;1.00
18717;DHT22;9487;50.892;6.906;2023-08-31T13:59:22;19.50;55.10
18717;DHT22;9487;50.892;6.906;2023-08-31T14:01:49;19.60;7.70
18717;DHT22;9487;50.892;6.906;2023-08-31T14:04:16;19.50;1.00
18717;DHT22;9487;50.892;6.906;2023-08-31T14:06:43;19.60;1.00
18717;DHT22;9487;50.892;6.906;2023-08-31T14:09:10;19.70;99.90
18717;DHT22;9487;50.892;6.906;2023-08-31T14:11:37;19.90;1.00
18717;DHT22;9487;50.892;6.906;2023-08-31T14:14:05;20.00;45.50
18717;DHT22;9487;50.892;6.906;2023-08-31T14:16:36;20.20;99.90
18717;DHT22;9487;50.892;6.906;2023-08-31T14:19:03;20.30;1.00
18717;DHT22;9487;50.892;6.906;2023-08-31T14:21:31;20.20;1.00
18717;DHT22;9487;50.892;6.906;2023-08-31T14:23:58;20.20;1.00
18717;DHT22;9487;50.892;6.906;2023-08-31T14:26:25;20.40;1.00
18717;DHT22;9487;50.892;6.906;2023-08-31T14:28:52;20.50;1.00
18717;DHT22;9487;50.892;6.906;2023-08-31T14:31:19;20.50;1.00
18717;DHT22;9487;50.892;6.906;2023-08-31T14:33:48;20.60;1.00
18717;DHT22;9487;50.892;6.906;2023-08-31T14:36:16;20.60;99.90
18717;DHT22;9487;50.892;6.906;2023-08-31T14:38:43;20.70;1.00
18717;DHT22;9487;50.892;6.906;2023-08-31T14:41:11;20.70;99.90
18717;DHT22;9487;50.892;6.906;2023-08-31T14:43:37;20.70;99.90
18717;DHT22;9487;50.892;6.906;2023-08-31T14:46:04;20.60;99.90
18717;DHT22;9487;50.892;6.906;2023-08-31T14:48:32;20.40;99.90
18717;DHT22;9487;50.892;6.906;2023-08-31T14:51:00;20.20;1.00
18717;DHT22;9487;50.892;6.906;2023-08-31T14:53:27;20.30;1.00
18717;DHT22;9487;50.892;6.906;2023-08-31T14:55:54;20.40;39.50
18717;DHT22;9487;50.892;6.906;2023-08-31T14:58:21;20.60;1.00
18717;DHT22;9487;50.892;6.906;2023-08-31T15:00:48;20.60;99.90
18717;DHT22;9487;50.892;6.906;2023-08-31T15:03:15;20.50;99.90
18717;DHT22;9487;50.892;6.906;2023-08-31T15:05:42;20.30;1.00
18717;DHT22;9487;50.892;6.906;2023-08-31T15:08:10;20.20;1.00
18717;DHT22;9487;50.892;6.906;2023-08-31T15:10:38;20.10;1.00
18717;DHT22;9487;50.892;6.906;2023-08-31T15:13:05;20.10;1.00
18717;DHT22;9487;50.892;6.906;2023-08-31T15:15:32;20.00;1.00
18717;DHT22;9487;50.892;6.906;2023-08-31T15:17:59;20.10;1.00
18717;DHT22;9487;50.892;6.906;2023-08-31T15:20:26;20.30;1.00
18717;DHT22;9487;50.892;6.906;2023-08-31T15:22:53;20.40;1.00
18717;DHT22;9487;50.892;6.906;2023-08-31T15:25:22;20.30;1.00
18717;DHT22;9487;50.892;6.906;2023-08-31T15:27:49;20.30;1.00
18717;DHT22;9487;50.892;6.906;2023-08-31T15:30:15;20.30;1.00
18717;DHT22;9487;50.892;6.906;2023-08-31T15:32:42;20.40;1.00
18717;DHT22;9487;50.892;6.906;2023-08-31T15:35:09;20.50;1.00
18717;DHT22;9487;50.892;6.906;2023-08-31T15:37:36;20.50;1.00
18717;DHT22;9487;50.892;6.906;2023-08-31T15:40:05;20.40;1.00
18717;DHT22;9487;50.892;6.906;2023-08-31T15:42:34;20.20;1.00
18717;DHT22;9487;50.892;6.906;2023-08-31T15:45:01;20.10;1.00
18717;DHT22;9487;50.892;6.906;2023-08-31T15:47:29;20.00;1.00
18717;DHT22;9487;50.892;6.906;2023-08-31T15:49:56;20.00;1.00
18717;DHT22;9487;50.892;6.906;2023-08-31T15:52:23;19.90;1.00
18717;DHT22;9487;50.892;6.906;2023-08-31T15:54:49;19.90;1.00
18717;DHT22;9487;50.892;6.906;2023-08-31T15:57:16;19.90;99.90
18717;DHT22;9487;50.892;6.906;2023-08-31T15:59:46;19.90;99.90